Time;durP1;ratioP1;P1;durP2;ratioP2;P2;SDS_P1;SDS_P2;PMS_P1;PMS_P2;Temp;Humidity;BMP_temperature;BMP_pressure;BME280_temperature;BME280_humidity;BME280_pressure;Samples;Min_cycle;Max_cycle;Signal;HPM_P1;HPM_P2
2023/10/28 00:02:58;;;;;;;14.00;9.20;;;;;;;8.05;97.07;98243.63;130669;1261;108582;-79
2023/10/28 00:06:04;;;;;;;12.10;8.40;;;;;;;8.13;97.20;98243.35;130674;1262;108720;-80
2023/10/28 00:09:10;;;;;;;11.60;8.50;;;;;;;8.13;96.67;98249.37;130738;1259;108768;-79
2023/10/28 00:12:16;;;;;;;10.20;7.60;;;;;;;8.10;96.33;98250.84;130726;1269;108518;-79
2023/10/28 00:15:21;;;;;;;9.10;6.70;;;;;;;8.07;96.25;98249.58;130658;1264;107132;-79
2023/10/28 00:18:28;;;;;;;7.40;5.20;;;;;;;8.01;95.97;98248.98;130684;1259;106731;-80
2023/10/28 00:21:34;;;;;;;9.10;5.90;;;;;;;7.96;95.34;98250.59;130656;1259;108426;-79
2023/10/28 00:24:41;;;;;;;7.80;5.80;;;;;;;7.90;95.83;98252.65;130716;1255;106728;-80
2023/10/28 00:27:47;;;;;;;6.80;5.30;;;;;;;7.93;95.76;98253.87;130749;1260;108300;-80
2023/10/28 00:30:52;;;;;;;7.40;5.60;;;;;;;7.94;95.60;98255.63;130595;1262;106487;-79
2023/10/28 00:33:58;;;;;;;7.20;5.10;;;;;;;7.90;95.42;98262.41;130537;1260;108578;-82
2023/10/28 00:37:04;;;;;;;5.50;4.10;;;;;;;7.85;95.18;98264.77;130704;1259;107774;-79
2023/10/28 00:40:12;;;;;;;6.20;4.70;;;;;;;7.80;95.02;98268.58;130649;1260;108711;-80
2023/10/28 00:43:24;;;;;;;7.20;4.70;;;;;;;7.80;95.37;98270.69;130727;1259;108987;-79
2023/10/28 00:46:29;;;;;;;6.80;4.90;;;;;;;7.83;94.92;98272.38;130635;1260;107768;-80
2023/10/28 00:49:35;;;;;;;9.60;5.30;;;;;;;7.91;95.58;98275.37;130655;1268;106793;-79
2023/10/28 00:52:44;;;;;;;6.90;4.40;;;;;;;7.97;95.26;98274.85;130699;1259;106774;-79
2023/10/28 00:55:51;;;;;;;5.80;4.30;;;;;;;7.96;95.36;98277.11;130680;1259;106640;-80
2023/10/28 00:58:58;;;;;;;7.20;5.50;;;;;;;8.00;95.10;98275.41;130602;1269;110200;-79
2023/10/28 01:02:04;;;;;;;7.60;5.30;;;;;;;7.98;94.77;98278.32;130714;1260;108491;-80
2023/10/28 01:05:12;;;;;;;7.30;4.90;;;;;;;7.90;94.49;98282.10;130760;1257;108713;-80
2023/10/28 01:08:17;;;;;;;7.20;4.90;;;;;;;7.81;94.55;98281.56;130706;1261;108801;-80
2023/10/28 01:11:23;;;;;;;7.80;4.90;;;;;;;7.72;94.71;98280.11;130662;1254;108623;-80
2023/10/28 01:14:29;;;;;;;6.90;4.70;;;;;;;7.61;94.49;98278.27;130633;1259;108596;-79
2023/10/28 01:17:35;;;;;;;6.00;4.30;;;;;;;7.55;94.86;98285.30;130632;1269;108731;-79
2023/10/28 01:20:41;;;;;;;6.10;4.60;;;;;;;7.61;95.23;98290.77;130866;1260;106724;-79
2023/10/28 01:23:47;;;;;;;7.30;5.20;;;;;;;7.69;94.91;98295.20;130596;1261;108680;-79
2023/10/28 01:26:52;;;;;;;6.70;4.90;;;;;;;7.66;94.06;98299.45;130582;1259;108671;-79
2023/10/28 01:29:59;;;;;;;6.80;5.20;;;;;;;7.62;94.36;98304.17;130556;1259;107307;-79
2023/10/28 01:33:04;;;;;;;5.90;4.70;;;;;;;7.63;94.44;98307.58;130588;1260;108689;-79
2023/10/28 01:36:10;;;;;;;6.10;4.50;;;;;;;7.64;94.25;98307.83;130559;1260;109128;-79
2023/10/28 01:39:16;;;;;;;6.60;4.10;;;;;;;7.60;93.90;98307.70;130597;1260;107709;-79
2023/10/28 01:42:23;;;;;;;7.10;4.60;;;;;;;7.62;94.56;98309.12;130563;1260;107800;-79
2023/10/28 01:45:28;;;;;;;7.60;4.80;;;;;;;7.66;94.28;98309.34;130604;1260;107036;-79
2023/10/28 01:48:35;;;;;;;6.30;4.60;;;;;;;7.70;94.35;98316.27;130567;1267;108016;-79
2023/10/28 01:51:40;;;;;;;7.50;4.90;;;;;;;7.73;93.88;98314.39;130502;1258;108705;-79
2023/10/28 01:54:47;;;;;;;7.00;4.70;;;;;;;7.72;93.96;98314.50;130585;1259;107609;-79
2023/10/28 01:57:53;;;;;;;7.70;4.30;;;;;;;7.71;93.94;98319.70;130507;1260;107537;-79
2023/10/28 02:00:58;;;;;;;6.10;3.90;;;;;;;7.72;94.11;98317.88;130544;1270;106189;-79
2023/10/28 02:04:06;;;;;;;7.00;4.30;;;;;;;7.76;94.34;98322.80;130565;1260;107694;-79
2023/10/28 02:07:12;;;;;;;6.40;4.50;;;;;;;7.87;94.45;98322.62;130580;1258;108022;-80
2023/10/28 02:10:18;;;;;;;7.40;4.50;;;;;;;7.99;94.64;98322.88;130576;1262;106411;-79
2023/10/28 02:13:23;;;;;;;7.20;4.70;;;;;;;8.09;94.49;98327.58;130562;1259;108654;-79
2023/10/28 02:16:29;;;;;;;7.70;5.30;;;;;;;8.17;94.43;98324.52;130569;1261;107260;-79
2023/10/28 02:19:34;;;;;;;7.50;4.60;;;;;;;8.22;94.14;98329.41;130517;1263;108475;-80
2023/10/28 02:22:41;;;;;;;4.90;3.60;;;;;;;8.25;94.23;98332.00;130526;1274;106536;-79
2023/10/28 02:25:47;;;;;;;8.30;4.20;;;;;;;8.31;94.12;98339.16;130521;1259;106773;-79
2023/10/28 02:28:52;;;;;;;6.00;4.00;;;;;;;8.38;94.17;98343.40;130579;1263;107370;-80
2023/10/28 02:31:58;;;;;;;6.00;4.30;;;;;;;8.45;94.00;98345.55;130624;1257;108730;-83
2023/10/28 02:35:04;;;;;;;5.20;4.10;;;;;;;8.51;93.90;98347.75;130626;1254;106575;-80
2023/10/28 02:38:10;;;;;;;5.40;4.40;;;;;;;8.55;93.95;98345.61;130673;1259;106434;-80
2023/10/28 02:41:16;;;;;;;7.40;4.30;;;;;;;8.56;93.82;98349.52;130460;1270;107260;-80
2023/10/28 02:44:23;;;;;;;6.80;4.30;;;;;;;8.56;93.76;98351.04;130790;1260;106545;-80
2023/10/28 02:47:31;;;;;;;6.80;3.50;;;;;;;8.52;93.74;98351.35;130753;1267;108631;-80
2023/10/28 02:50:38;;;;;;;6.80;4.60;;;;;;;8.51;93.88;98358.85;130704;1257;107322;-80
2023/10/28 02:53:43;;;;;;;13.80;9.10;;;;;;;8.55;93.79;98363.86;130840;1267;108106;-80
2023/10/28 02:56:49;;;;;;;9.40;7.40;;;;;;;8.60;93.76;98366.74;130696;1260;107597;-79
2023/10/28 02:59:55;;;;;;;15.10;13.50;;;;;;;8.63;93.67;98376.31;130651;1254;108614;-79
2023/10/28 03:03:02;;;;;;;9.00;7.40;;;;;;;8.65;93.74;98378.29;130575;1270;107355;-80
2023/10/28 03:06:08;;;;;;;8.70;6.10;;;;;;;8.64;93.67;98384.95;130596;1254;108153;-79
2023/10/28 03:09:14;;;;;;;11.00;7.10;;;;;;;8.62;93.61;98386.34;130628;1260;108342;-79
2023/10/28 03:12:20;;;;;;;7.20;5.10;;;;;;;8.63;93.67;98388.26;130527;1260;108479;-79
2023/10/28 03:15:26;;;;;;;7.30;5.30;;;;;;;8.64;93.65;98390.96;130660;1255;107195;-79
2023/10/28 03:18:31;;;;;;;8.10;5.20;;;;;;;8.66;93.55;98393.37;130559;1268;107623;-79
2023/10/28 03:21:37;;;;;;;8.10;4.80;;;;;;;8.68;93.38;98399.19;130697;1260;107890;-79
2023/10/28 03:24:43;;;;;;;6.40;5.00;;;;;;;8.66;93.25;98399.63;130673;1267;107669;-79
2023/10/28 03:27:48;;;;;;;8.60;5.30;;;;;;;8.63;93.09;98398.15;130571;1267;107694;-79
2023/10/28 03:30:54;;;;;;;8.20;5.40;;;;;;;8.55;92.90;98400.05;130586;1254;107471;-81
2023/10/28 03:34:00;;;;;;;7.90;5.30;;;;;;;8.49;93.05;98396.86;130675;1270;106958;-81
2023/10/28 03:37:06;;;;;;;7.10;5.20;;;;;;;8.45;93.30;98397.33;130686;1259;107719;-82
2023/10/28 03:40:12;;;;;;;7.30;4.70;;;;;;;8.37;92.81;98399.52;130605;1261;107792;-79
2023/10/28 03:43:18;;;;;;;5.90;4.70;;;;;;;8.32;93.13;98398.70;130736;1268;108624;-80
2023/10/28 03:46:25;;;;;;;6.90;5.40;;;;;;;8.33;93.22;98402.09;130652;1259;108616;-81
2023/10/28 03:49:30;;;;;;;7.60;5.50;;;;;;;8.41;93.39;98406.52;130670;1260;107668;-80
2023/10/28 03:52:36;;;;;;;7.50;5.30;;;;;;;8.47;93.31;98405.65;130678;1257;108587;-80
2023/10/28 03:55:42;;;;;;;10.50;5.80;;;;;;;8.48;93.07;98409.08;130700;1259;106662;-82
2023/10/28 03:58:47;;;;;;;6.60;4.80;;;;;;;8.50;93.28;98414.30;130678;1260;108721;-79
2023/10/28 04:01:53;;;;;;;7.40;4.70;;;;;;;8.51;93.20;98413.30;130481;1260;107465;-79
2023/10/28 04:04:59;;;;;;;8.10;5.40;;;;;;;8.54;93.09;98420.23;130636;1259;108662;-79
2023/10/28 04:08:05;;;;;;;9.00;5.70;;;;;;;8.60;93.29;98427.11;130607;1261;108837;-80
2023/10/28 04:11:11;;;;;;;9.40;6.30;;;;;;;8.64;93.29;98429.04;130584;1261;108615;-80
2023/10/28 04:14:17;;;;;;;7.50;5.90;;;;;;;8.68;93.16;98427.25;130652;1260;107621;-80
2023/10/28 04:17:24;;;;;;;6.40;5.10;;;;;;;8.70;93.20;98427.50;130662;1260;107594;-80
2023/10/28 04:20:31;;;;;;;8.10;5.80;;;;;;;8.70;92.86;98430.91;130637;1259;107300;-80
2023/10/28 04:23:36;;;;;;;7.30;5.20;;;;;;;8.67;92.82;98425.73;130690;1267;108359;-79
2023/10/28 04:26:42;;;;;;;7.30;4.60;;;;;;;8.64;92.63;98426.42;130670;1259;108717;-79
2023/10/28 04:29:48;;;;;;;9.90;5.90;;;;;;;8.62;92.58;98433.56;130726;1261;108693;-79
2023/10/28 04:32:55;;;;;;;8.20;5.60;;;;;;;8.58;92.31;98433.68;130669;1268;107759;-80
2023/10/28 04:36:01;;;;;;;8.10;5.60;;;;;;;8.48;92.15;98434.48;130710;1267;108553;-79
2023/10/28 04:39:07;;;;;;;7.60;5.90;;;;;;;8.39;92.31;98435.96;130681;1258;107438;-79
2023/10/28 04:42:12;;;;;;;9.30;6.10;;;;;;;8.32;92.44;98436.94;130635;1268;107665;-79
2023/10/28 04:45:18;;;;;;;9.60;6.60;;;;;;;8.32;92.80;98438.94;130667;1261;106576;-81
2023/10/28 04:48:27;;;;;;;7.40;5.30;;;;;;;8.34;92.62;98439.63;130605;1254;106928;-81
2023/10/28 04:51:33;;;;;;;7.80;4.80;;;;;;;8.36;92.90;98443.28;130590;1260;106531;-81
2023/10/28 04:54:39;;;;;;;8.30;5.60;;;;;;;8.41;92.97;98453.09;130727;1260;108606;-81
2023/10/28 04:57:45;;;;;;;14.10;12.10;;;;;;;8.48;92.90;98456.40;130645;1261;108705;-81
2023/10/28 05:00:51;;;;;;;16.20;12.90;;;;;;;8.53;92.96;98455.98;130689;1254;106620;-81
2023/10/28 05:03:57;;;;;;;90.00;71.70;;;;;;;8.57;93.01;98458.09;130682;1268;108660;-81
2023/10/28 05:07:04;;;;;;;36.70;27.80;;;;;;;8.60;92.97;98458.98;130635;1259;108669;-81
2023/10/28 05:10:11;;;;;;;26.00;21.90;;;;;;;8.62;92.62;98464.61;130661;1268;106825;-80
2023/10/28 05:13:17;;;;;;;17.70;13.50;;;;;;;8.60;92.56;98470.31;130687;1255;108516;-79
2023/10/28 05:16:23;;;;;;;10.10;7.80;;;;;;;8.61;92.73;98479.81;130630;1254;109356;-79
2023/10/28 05:19:29;;;;;;;98.40;51.90;;;;;;;8.62;92.62;98482.19;130660;1259;108658;-80
2023/10/28 05:22:38;;;;;;;21.50;12.00;;;;;;;8.64;92.17;98480.98;130644;1260;107691;-79
2023/10/28 05:25:43;;;;;;;9.10;6.30;;;;;;;8.55;91.44;98482.39;130683;1256;108753;-79
2023/10/28 05:28:51;;;;;;;10.60;7.70;;;;;;;8.41;91.36;98486.35;130647;1257;108055;-79
2023/10/28 05:31:58;;;;;;;6.40;4.90;;;;;;;8.34;91.16;98488.64;130644;1261;107636;-79
2023/10/28 05:35:04;;;;;;;7.50;4.90;;;;;;;8.22;91.34;98490.42;130713;1254;107600;-79
2023/10/28 05:38:10;;;;;;;8.00;7.10;;;;;;;8.19;91.47;98490.42;130739;1254;106576;-80
2023/10/28 05:41:15;;;;;;;9.60;7.30;;;;;;;8.12;91.48;98494.64;130633;1270;108649;-80
2023/10/28 05:44:21;;;;;;;7.40;5.10;;;;;;;8.06;91.38;98499.55;130724;1261;108703;-79
2023/10/28 05:47:27;;;;;;;7.50;5.50;;;;;;;8.08;91.81;98499.61;130700;1259;107145;-79
2023/10/28 05:50:32;;;;;;;6.20;5.10;;;;;;;8.16;92.02;98504.89;130627;1269;106477;-80
2023/10/28 05:53:38;;;;;;;21.10;12.40;;;;;;;8.27;92.21;98504.73;130707;1259;107117;-79
2023/10/28 05:56:44;;;;;;;8.30;5.70;;;;;;;8.35;91.77;98513.52;130548;1260;108295;-78
2023/10/28 05:59:50;;;;;;;6.20;4.90;;;;;;;8.39;91.79;98515.63;130537;1259;107534;-79
2023/10/28 06:02:56;;;;;;;9.80;7.60;;;;;;;8.45;91.81;98518.49;130547;1258;107053;-79
2023/10/28 06:06:01;;;;;;;8.30;5.10;;;;;;;8.50;92.06;98521.00;130515;1260;108620;-80
2023/10/28 06:09:09;;;;;;;9.40;5.80;;;;;;;8.52;91.87;98527.78;130554;1261;106652;-79
2023/10/28 06:12:16;;;;;;;26.70;17.10;;;;;;;8.56;92.00;98526.58;130511;1260;108438;-79
2023/10/28 06:15:24;;;;;;;13.10;6.60;;;;;;;8.64;92.03;98528.65;130549;1256;105583;-79
2023/10/28 06:18:30;;;;;;;9.50;6.10;;;;;;;8.74;91.86;98540.61;130574;1255;107732;-79
2023/10/28 06:21:36;;;;;;;24.00;15.90;;;;;;;8.78;91.96;98538.08;130863;1256;107501;-79
2023/10/28 06:24:41;;;;;;;35.20;20.90;;;;;;;8.83;91.91;98541.17;130601;1254;108446;-80
2023/10/28 06:27:47;;;;;;;45.40;25.30;;;;;;;8.83;91.68;98547.81;130528;1254;108620;-80
2023/10/28 06:30:53;;;;;;;18.30;12.60;;;;;;;8.83;91.88;98554.20;130552;1260;108556;-79
2023/10/28 06:34:00;;;;;;;8.70;6.80;;;;;;;8.82;91.75;98553.58;130530;1271;107873;-79
2023/10/28 06:37:08;;;;;;;10.50;6.80;;;;;;;8.89;91.64;98556.07;130585;1254;107359;-80
2023/10/28 06:40:14;;;;;;;12.00;8.40;;;;;;;8.94;91.79;98557.16;130735;1254;107841;-80
2023/10/28 06:43:20;;;;;;;15.80;11.80;;;;;;;8.97;91.26;98561.28;130733;1260;107423;-80
2023/10/28 06:46:25;;;;;;;171.30;60.10;;;;;;;9.00;91.35;98562.15;130784;1259;107884;-80
2023/10/28 06:49:31;;;;;;;56.10;32.20;;;;;;;9.04;91.36;98569.70;130632;1254;108533;-79
2023/10/28 06:52:38;;;;;;;16.90;11.60;;;;;;;9.09;91.30;98572.79;130589;1259;107879;-79
2023/10/28 06:55:44;;;;;;;11.00;7.00;;;;;;;9.17;91.36;98578.25;130694;1261;105547;-79
2023/10/28 06:58:50;;;;;;;5.10;4.40;;;;;;;9.19;91.39;98581.12;130601;1257;107661;-79
2023/10/28 07:01:55;;;;;;;5.80;3.80;;;;;;;9.20;91.28;98583.70;130615;1259;108511;-79
2023/10/28 07:05:01;;;;;;;5.60;4.10;;;;;;;9.23;91.48;98585.50;130492;1254;109356;-80
2023/10/28 07:08:07;;;;;;;8.50;4.30;;;;;;;9.27;91.45;98586.73;130788;1254;105330;-79
2023/10/28 07:11:16;;;;;;;6.30;4.50;;;;;;;9.33;91.43;98588.16;130572;1260;108792;-79
2023/10/28 07:14:23;;;;;;;6.30;4.60;;;;;;;9.39;91.55;98595.94;130504;1260;108685;-79
2023/10/28 07:17:29;;;;;;;5.60;4.30;;;;;;;9.43;91.51;98599.30;130585;1260;106333;-79
2023/10/28 07:20:34;;;;;;;6.00;4.40;;;;;;;9.46;91.08;98603.09;130645;1261;107474;-79
2023/10/28 07:23:40;;;;;;;4.70;3.80;;;;;;;9.44;91.01;98606.18;130552;1261;107967;-80
2023/10/28 07:26:45;;;;;;;4.30;3.00;;;;;;;9.46;91.26;98604.86;130595;1260;108549;-79
2023/10/28 07:29:51;;;;;;;4.80;3.10;;;;;;;9.52;91.33;98609.73;130508;1257;106735;-79
2023/10/28 07:32:56;;;;;;;4.60;3.60;;;;;;;9.56;91.12;98608.06;130563;1260;107553;-79
2023/10/28 07:36:05;;;;;;;5.40;3.60;;;;;;;9.62;90.92;98613.16;130652;1254;108484;-80
2023/10/28 07:39:11;;;;;;;6.00;3.90;;;;;;;9.71;90.79;98620.14;130673;1259;108691;-79
2023/10/28 07:42:17;;;;;;;4.40;3.50;;;;;;;9.81;90.53;98619.59;130641;1259;107332;-79
2023/10/28 07:45:24;;;;;;;4.70;3.80;;;;;;;9.90;90.71;98620.60;130873;1259;106782;-79
2023/10/28 07:48:30;;;;;;;4.30;3.30;;;;;;;9.97;90.32;98621.87;130627;1259;107630;-80
2023/10/28 07:51:35;;;;;;;4.40;3.50;;;;;;;10.04;90.25;98625.65;130703;1261;108659;-80
2023/10/28 07:54:41;;;;;;;4.90;3.80;;;;;;;10.08;90.38;98626.60;130680;1256;108067;-77
2023/10/28 07:57:47;;;;;;;5.90;4.10;;;;;;;10.11;90.63;98628.77;130592;1256;107779;-76
2023/10/28 08:00:52;;;;;;;4.60;3.50;;;;;;;10.14;90.61;98629.77;130535;1254;107596;-76
2023/10/28 08:03:59;;;;;;;5.20;3.90;;;;;;;10.20;90.76;98635.50;130586;1255;106277;-77
2023/10/28 08:07:05;;;;;;;4.90;4.00;;;;;;;10.27;90.88;98639.91;130578;1259;106704;-78
2023/10/28 08:10:11;;;;;;;5.00;3.90;;;;;;;10.34;90.47;98639.96;130582;1254;107661;-79
2023/10/28 08:13:17;;;;;;;5.50;3.60;;;;;;;10.37;90.25;98642.24;130518;1259;108621;-76
2023/10/28 08:16:23;;;;;;;4.10;3.10;;;;;;;10.38;90.20;98645.62;130718;1254;107622;-78
2023/10/28 08:19:29;;;;;;;4.90;3.20;;;;;;;10.36;90.11;98650.31;130635;1259;107580;-77
2023/10/28 08:22:35;;;;;;;4.10;3.20;;;;;;;10.38;90.07;98653.48;130587;1256;108458;-80
2023/10/28 08:25:40;;;;;;;6.00;3.40;;;;;;;10.39;89.62;98654.98;130544;1259;107113;-78
2023/10/28 08:28:50;;;;;;;5.20;3.20;;;;;;;10.43;89.87;98657.55;130532;1259;106658;-77
2023/10/28 08:31:57;;;;;;;5.10;2.90;;;;;;;10.49;89.74;98658.48;130548;1260;107593;-78
2023/10/28 08:35:04;;;;;;;3.50;2.80;;;;;;;10.53;89.58;98665.11;130683;1256;108591;-78
2023/10/28 08:38:10;;;;;;;4.80;2.90;;;;;;;10.55;89.39;98668.41;130699;1254;107554;-77
2023/10/28 08:41:18;;;;;;;6.90;5.10;;;;;;;10.58;89.62;98669.48;130742;1260;106910;-79
2023/10/28 08:44:28;;;;;;;6.20;3.20;;;;;;;10.61;89.29;98670.18;130756;1254;107968;-78
2023/10/28 08:47:38;;;;;;;4.80;3.10;;;;;;;10.60;89.22;98672.27;130839;1261;109076;-79
2023/10/28 08:50:50;;;;;;;4.90;3.70;;;;;;;10.60;89.21;98681.48;130900;1259;107769;-78
2023/10/28 08:53:59;;;;;;;9.50;8.50;;;;;;;10.58;89.68;98685.05;130682;1259;107757;-78
2023/10/28 08:57:08;;;;;;;5.50;4.40;;;;;;;10.59;89.80;98692.70;130541;1255;107564;-79
2023/10/28 09:00:17;;;;;;;23.20;18.40;;;;;;;10.53;89.52;98697.24;131064;1259;107718;-80
2023/10/28 09:03:26;;;;;;;11.20;8.90;;;;;;;10.52;89.56;98703.84;130598;1259;108726;-79
2023/10/28 09:06:32;;;;;;;8.30;6.50;;;;;;;10.52;89.62;98711.95;130615;1259;108606;-78
2023/10/28 09:09:39;;;;;;;16.60;13.80;;;;;;;10.52;89.37;98713.39;130575;1254;108449;-79
2023/10/28 09:12:47;;;;;;;12.00;7.10;;;;;;;10.51;89.10;98719.70;130505;1260;108694;-78
2023/10/28 09:15:53;;;;;;;12.40;10.20;;;;;;;10.49;89.45;98720.58;130806;1259;107047;-80
2023/10/28 09:18:58;;;;;;;8.10;6.30;;;;;;;10.46;89.34;98717.77;130512;1254;108557;-80
2023/10/28 09:22:05;;;;;;;8.70;6.40;;;;;;;10.46;89.44;98720.10;130644;1256;107961;-79
2023/10/28 09:25:14;;;;;;;8.50;5.70;;;;;;;10.44;89.40;98725.42;130521;1257;107771;-79
2023/10/28 09:28:22;;;;;;;8.10;5.80;;;;;;;10.44;89.33;98727.42;130551;1254;107699;-79
2023/10/28 09:31:29;;;;;;;7.10;5.70;;;;;;;10.45;89.08;98727.44;130488;1259;106674;-79
2023/10/28 09:34:37;;;;;;;9.60;8.10;;;;;;;10.50;89.06;98727.86;130638;1259;106849;-80
2023/10/28 09:37:44;;;;;;;10.20;8.00;;;;;;;10.55;89.15;98728.69;130578;1259;108291;-79
2023/10/28 09:40:50;;;;;;;10.10;8.00;;;;;;;10.63;88.63;98730.24;130478;1257;108460;-80
2023/10/28 09:43:58;;;;;;;11.10;9.40;;;;;;;10.72;88.78;98727.66;130602;1259;107297;-79
2023/10/28 09:47:05;;;;;;;12.40;8.30;;;;;;;10.75;88.52;98727.27;130833;1256;108431;-80
2023/10/28 09:50:15;;;;;;;10.80;7.90;;;;;;;10.73;88.51;98731.48;130577;1258;107971;-80
2023/10/28 09:53:33;;;;;;;9.60;8.30;;;;;;;10.73;88.81;98731.48;130549;1259;106332;-79
2023/10/28 09:56:43;;;;;;;16.50;11.10;;;;;;;10.75;88.67;98733.58;130612;1259;109364;-81
2023/10/28 09:59:52;;;;;;;8.90;6.50;;;;;;;10.76;88.66;98737.45;130622;1267;107519;-81
2023/10/28 10:03:19;;;;;;;11.40;8.10;;;;;;;10.79;88.85;98737.52;130695;1254;109879;-81
2023/10/28 10:06:26;;;;;;;14.00;9.10;;;;;;;10.79;88.77;98738.13;130585;1259;107109;-83
2023/10/28 10:09:42;;;;;;;27.70;19.90;;;;;;;10.82;89.09;98737.46;130692;1259;107637;-80
2023/10/28 10:12:49;;;;;;;17.20;11.10;;;;;;;10.84;88.74;98740.58;130602;1258;108535;-81
2023/10/28 10:16:12;;;;;;;15.90;10.50;;;;;;;10.83;88.69;98742.36;130710;1260;108029;-81
2023/10/28 10:19:24;;;;;;;17.30;10.60;;;;;;;10.76;88.82;98746.69;130628;1259;109250;-81
2023/10/28 10:22:35;;;;;;;16.00;10.70;;;;;;;10.68;88.38;98752.06;130646;1259;107789;-81
2023/10/28 10:25:46;;;;;;;21.40;13.70;;;;;;;10.65;88.62;98756.02;130667;1259;106760;-81
2023/10/28 10:28:54;;;;;;;11.40;8.10;;;;;;;10.59;88.74;98756.84;130671;1259;108936;-80
2023/10/28 10:31:59;;;;;;;11.20;6.20;;;;;;;10.57;88.58;98747.08;130703;1257;108917;-81
2023/10/28 10:35:12;;;;;;;8.40;6.10;;;;;;;10.68;88.69;98742.92;130726;1255;107654;-79
2023/10/28 10:38:27;;;;;;;10.10;6.40;;;;;;;10.89;88.76;98744.59;130636;1257;107473;-82
2023/10/28 10:41:32;;;;;;;11.20;8.10;;;;;;;11.05;88.68;98745.99;130512;1260;108379;-80
2023/10/28 10:44:38;;;;;;;10.20;8.00;;;;;;;11.09;88.17;98751.23;130493;1254;194544;-80
2023/10/28 10:47:44;;;;;;;10.60;6.90;;;;;;;11.04;87.87;98753.42;130764;1256;107166;-81
2023/10/28 10:50:50;;;;;;;8.30;6.10;;;;;;;10.97;88.01;98752.58;130719;1259;106720;-81
2023/10/28 10:53:56;;;;;;;10.00;8.70;;;;;;;10.92;88.11;98757.75;130631;1259;108673;-81
2023/10/28 10:57:02;;;;;;;15.00;11.70;;;;;;;10.86;88.40;98761.92;130584;1255;108636;-81
2023/10/28 11:00:15;;;;;;;8.00;5.70;;;;;;;10.79;88.38;98760.42;130657;1266;108549;-81
2023/10/28 11:03:21;;;;;;;13.70;7.60;;;;;;;10.79;88.18;98758.21;131063;1256;106742;-81
2023/10/28 11:06:28;;;;;;;15.40;9.00;;;;;;;10.81;88.63;98763.56;130687;1259;107079;-82
2023/10/28 11:09:37;;;;;;;15.80;9.70;;;;;;;10.86;88.41;98767.05;130686;1261;108784;-82
2023/10/28 11:12:43;;;;;;;28.50;19.10;;;;;;;10.88;88.55;98767.16;130621;1259;107634;-81
2023/10/28 11:15:52;;;;;;;12.30;8.00;;;;;;;10.90;88.49;98770.38;130574;1260;108191;-81
2023/10/28 11:18:59;;;;;;;11.30;7.70;;;;;;;10.95;88.56;98769.31;130585;1259;106869;-80
2023/10/28 11:22:05;;;;;;;8.90;6.40;;;;;;;10.97;88.62;98767.07;130594;1259;107592;-81
2023/10/28 11:25:11;;;;;;;11.00;6.40;;;;;;;10.96;88.55;98766.29;130663;1259;108530;-80
2023/10/28 11:28:17;;;;;;;10.90;6.70;;;;;;;10.97;88.62;98767.98;130645;1259;106649;-81
2023/10/28 11:31:23;;;;;;;12.50;6.90;;;;;;;10.97;88.87;98769.53;130596;1259;106615;-81
2023/10/28 11:34:29;;;;;;;11.30;7.10;;;;;;;10.99;88.40;98772.47;130787;1256;108370;-79
2023/10/28 11:37:35;;;;;;;10.90;7.40;;;;;;;11.04;88.69;98773.58;130568;1258;107668;-79
2023/10/28 11:40:41;;;;;;;12.70;7.70;;;;;;;11.02;88.72;98779.43;130544;1268;106643;-79
2023/10/28 11:43:49;;;;;;;17.00;8.70;;;;;;;10.95;88.47;98779.17;130552;1256;107642;-79
2023/10/28 11:46:55;;;;;;;15.40;9.30;;;;;;;10.91;88.59;98779.52;130692;1260;108453;-79
2023/10/28 11:50:01;;;;;;;18.30;11.60;;;;;;;10.93;88.70;98774.55;130587;1259;107806;-79
2023/10/28 11:53:06;;;;;;;17.10;11.70;;;;;;;10.89;88.98;98779.77;130540;1259;108788;-79
2023/10/28 11:56:13;;;;;;;14.60;10.30;;;;;;;10.87;88.97;98786.00;130532;1259;106756;-80
2023/10/28 11:59:19;;;;;;;15.50;11.10;;;;;;;10.93;88.92;98786.26;130521;1259;108517;-80
2023/10/28 12:02:26;;;;;;;35.30;24.70;;;;;;;10.98;89.08;98787.57;130597;1259;106916;-80
2023/10/28 12:05:33;;;;;;;27.80;17.40;;;;;;;11.03;88.91;98787.73;130633;1259;106803;-80
2023/10/28 12:08:38;;;;;;;37.40;26.10;;;;;;;11.03;88.71;98786.83;130531;1270;105649;-80
2023/10/28 12:11:46;;;;;;;24.40;17.00;;;;;;;10.99;89.00;98791.36;130535;1259;106474;-79
2023/10/28 12:14:51;;;;;;;18.60;14.20;;;;;;;10.97;88.94;98790.89;130780;1258;107651;-79
2023/10/28 12:17:57;;;;;;;17.50;11.80;;;;;;;10.94;89.01;98793.98;130523;1254;108687;-79
2023/10/28 12:21:03;;;;;;;22.70;15.00;;;;;;;10.87;89.09;98800.36;130562;1270;106379;-79
2023/10/28 12:24:11;;;;;;;16.50;10.70;;;;;;;10.86;88.88;98796.09;130522;1259;106466;-79
2023/10/28 12:27:16;;;;;;;22.70;12.90;;;;;;;10.88;89.09;98793.23;130633;1255;107545;-79
2023/10/28 12:30:22;;;;;;;31.90;17.90;;;;;;;10.93;89.27;98791.06;130636;1259;108621;-81
2023/10/28 12:33:31;;;;;;;25.80;16.80;;;;;;;10.94;88.87;98790.37;130672;1259;107487;-82
2023/10/28 12:36:37;;;;;;;27.60;16.90;;;;;;;10.93;88.76;98797.83;130765;1256;107583;-81
2023/10/28 12:39:42;;;;;;;28.20;17.40;;;;;;;10.92;88.95;98802.96;130588;1259;108515;-81
2023/10/28 12:42:49;;;;;;;21.80;14.60;;;;;;;10.91;89.06;98804.14;130673;1259;106718;-80
2023/10/28 12:45:55;;;;;;;24.10;16.00;;;;;;;10.90;89.26;98802.04;130703;1259;107517;-78
2023/10/28 12:49:00;;;;;;;23.20;15.50;;;;;;;10.89;89.04;98807.56;130550;1259;107505;-80
2023/10/28 12:52:07;;;;;;;19.50;13.60;;;;;;;10.87;89.31;98803.36;130687;1254;108415;-81
2023/10/28 12:55:13;;;;;;;18.50;13.20;;;;;;;10.90;89.09;98804.54;130771;1259;108554;-79
2023/10/28 12:58:18;;;;;;;19.30;12.90;;;;;;;10.92;88.97;98808.45;130808;1259;107670;-79
2023/10/28 13:01:28;;;;;;;17.70;12.30;;;;;;;10.89;89.06;98814.46;130579;1254;106378;-79
2023/10/28 13:04:34;;;;;;;15.50;11.00;;;;;;;10.84;89.51;98812.44;130663;1260;108739;-80
2023/10/28 13:07:39;;;;;;;14.50;10.10;;;;;;;10.81;89.18;98807.85;130543;1258;106192;-79
2023/10/28 13:10:45;;;;;;;19.20;14.30;;;;;;;10.80;89.61;98813.80;130504;1257;108598;-79
2023/10/28 13:13:51;;;;;;;20.70;13.70;;;;;;;10.80;89.46;98809.95;130675;1256;106767;-79
2023/10/28 13:16:58;;;;;;;19.10;11.50;;;;;;;10.81;89.27;98809.58;130665;1259;107856;-80
2023/10/28 13:20:05;;;;;;;17.30;12.10;;;;;;;10.80;89.13;98815.73;130605;1254;108579;-80
2023/10/28 13:23:12;;;;;;;16.70;12.00;;;;;;;10.83;89.09;98813.30;130726;1258;106304;-80
2023/10/28 13:26:17;;;;;;;17.80;12.40;;;;;;;10.89;89.29;98813.10;130604;1257;106645;-79
2023/10/28 13:29:23;;;;;;;15.70;10.30;;;;;;;10.93;89.59;98814.83;130629;1259;108643;-80
2023/10/28 13:32:29;;;;;;;18.00;12.40;;;;;;;10.93;89.37;98821.27;130579;1259;107287;-79
2023/10/28 13:35:34;;;;;;;19.40;13.60;;;;;;;10.91;89.30;98819.58;130702;1259;108595;-79
2023/10/28 13:38:40;;;;;;;24.30;16.90;;;;;;;10.90;89.22;98821.79;130596;1254;106826;-79
2023/10/28 13:41:46;;;;;;;23.50;16.20;;;;;;;10.91;89.33;98821.30;130534;1256;108518;-77
2023/10/28 13:44:52;;;;;;;18.40;11.90;;;;;;;10.89;89.25;98827.10;130533;1262;106024;-78
2023/10/28 13:47:59;;;;;;;28.40;18.90;;;;;;;10.83;89.39;98835.46;130588;1259;108679;-79
2023/10/28 13:51:05;;;;;;;23.70;15.50;;;;;;;10.77;89.55;98839.83;130633;1259;108422;-79
2023/10/28 13:54:13;;;;;;;26.90;19.50;;;;;;;10.71;89.60;98842.55;130597;1256;107670;-79
2023/10/28 13:57:18;;;;;;;15.90;9.70;;;;;;;10.58;89.46;98844.96;130607;1259;108640;-78
2023/10/28 14:00:25;;;;;;;11.80;8.90;;;;;;;10.47;90.00;98849.65;130738;1259;108642;-79
2023/10/28 14:03:31;;;;;;;22.00;15.10;;;;;;;10.49;90.02;98848.59;130614;1255;106896;-78
2023/10/28 14:06:37;;;;;;;35.80;23.10;;;;;;;10.49;89.58;98853.35;130612;1258;107552;-80
2023/10/28 14:09:43;;;;;;;18.40;12.90;;;;;;;10.43;90.28;98855.21;130632;1260;106573;-79
2023/10/28 14:12:49;;;;;;;20.90;14.30;;;;;;;10.43;90.11;98853.60;130602;1259;108587;-79
2023/10/28 14:15:55;;;;;;;18.10;13.00;;;;;;;10.44;90.18;98854.58;130565;1259;107721;-79
2023/10/28 14:19:05;;;;;;;19.40;13.50;;;;;;;10.46;90.47;98855.52;130510;1259;107658;-79